sensor_id;sensor_type;location;lat;lon;timestamp;pressure;altitude;pressure_sealevel;temperature;humidity
46412;BME280;32113;42.012;24.870;2023-04-01T00:00:08;98156.91;;;14.51;43.81
46412;BME280;32113;42.012;24.870;2023-04-01T00:02:35;98150.81;;;14.52;43.61
46412;BME280;32113;42.012;24.870;2023-04-01T00:05:00;98162.56;;;14.59;43.23
46412;BME280;32113;42.012;24.870;2023-04-01T00:07:26;98166.91;;;14.59;43.23
46412;BME280;32113;42.012;24.870;2023-04-01T00:09:52;98171.28;;;14.57;43.51
46412;BME280;32113;42.012;24.870;2023-04-01T00:12:17;98172.97;;;14.58;43.67
46412;BME280;32113;42.012;24.870;2023-04-01T00:14:43;98171.22;;;14.58;43.67
46412;BME280;32113;42.012;24.870;2023-04-01T00:17:08;98178.97;;;14.58;43.79
46412;BME280;32113;42.012;24.870;2023-04-01T00:19:34;98178.31;;;14.53;43.94
46412;BME280;32113;42.012;24.870;2023-04-01T00:21:59;98191.41;;;14.49;43.90
46412;BME280;32113;42.012;24.870;2023-04-01T00:24:25;98183.97;;;14.41;43.55
46412;BME280;32113;42.012;24.870;2023-04-01T00:26:50;98186.25;;;14.26;43.92
46412;BME280;32113;42.012;24.870;2023-04-01T00:29:16;98173.66;;;14.18;44.32
46412;BME280;32113;42.012;24.870;2023-04-01T00:31:41;98177.16;;;14.17;44.54
46412;BME280;32113;42.012;24.870;2023-04-01T00:34:06;98174.56;;;14.17;44.65
46412;BME280;32113;42.012;24.870;2023-04-01T00:36:32;98178.06;;;14.16;44.55
46412;BME280;32113;42.012;24.870;2023-04-01T00:38:58;98178.28;;;14.10;44.60
46412;BME280;32113;42.012;24.870;2023-04-01T00:41:24;98175.63;;;14.12;44.59
46412;BME280;32113;42.012;24.870;2023-04-01T00:43:51;98165.63;;;14.04;45.00
46412;BME280;32113;42.012;24.870;2023-04-01T00:46:18;98171.84;;;13.98;44.99
46412;BME280;32113;42.012;24.870;2023-04-01T00:48:47;98175.31;;;13.97;44.99
46412;BME280;32113;42.012;24.870;2023-04-01T00:51:27;98174.72;;;13.90;45.15
46412;BME280;32113;42.012;24.870;2023-04-01T00:53:55;98165.25;;;13.91;45.14
46412;BME280;32113;42.012;24.870;2023-04-01T00:56:30;98159.31;;;13.89;44.68
46412;BME280;32113;42.012;24.870;2023-04-01T00:59:00;98167.22;;;13.84;45.15
46412;BME280;32113;42.012;24.870;2023-04-01T01:01:28;98175.06;;;13.81;44.92
46412;BME280;32113;42.012;24.870;2023-04-01T01:03:54;98163.81;;;13.84;45.91
46412;BME280;32113;42.012;24.870;2023-04-01T01:09:08;98159.75;;;13.78;45.59
46412;BME280;32113;42.012;24.870;2023-04-01T01:12:13;98160.56;;;13.78;46.13
46412;BME280;32113;42.012;24.870;2023-04-01T01:17:15;98162.84;;;13.86;45.78
46412;BME280;32113;42.012;24.870;2023-04-01T01:19:57;98161.06;;;13.88;45.34
46412;BME280;32113;42.012;24.870;2023-04-01T01:22:44;98165.41;;;13.86;45.91
46412;BME280;32113;42.012;24.870;2023-04-01T01:25:18;98156.88;;;13.86;46.32
46412;BME280;32113;42.012;24.870;2023-04-01T01:31:02;98154.59;;;14.00;45.91
46412;BME280;32113;42.012;24.870;2023-04-01T01:36:31;98161.19;;;14.08;46.73
46412;BME280;32113;42.012;24.870;2023-04-01T01:39:00;98160.47;;;14.04;46.71
46412;BME280;32113;42.012;24.870;2023-04-01T01:41:27;98163.75;;;14.08;46.70
46412;BME280;32113;42.012;24.870;2023-04-01T01:43:53;98160.41;;;14.05;46.84
46412;BME280;32113;42.012;24.870;2023-04-01T01:46:22;98160.47;;;14.04;47.18
46412;BME280;32113;42.012;24.870;2023-04-01T01:48:49;98159.44;;;14.08;47.24
46412;BME280;32113;42.012;24.870;2023-04-01T01:51:17;98162.88;;;14.09;47.09
46412;BME280;32113;42.012;24.870;2023-04-01T01:53:43;98156.16;;;14.04;47.54
46412;BME280;32113;42.012;24.870;2023-04-01T01:56:10;98169.16;;;14.01;48.09
46412;BME280;32113;42.012;24.870;2023-04-01T01:58:52;98162.28;;;14.02;48.59
46412;BME280;32113;42.012;24.870;2023-04-01T02:01:28;98154.59;;;14.00;48.85
46412;BME280;32113;42.012;24.870;2023-04-01T02:03:55;98148.53;;;14.01;49.42
46412;BME280;32113;42.012;24.870;2023-04-01T02:06:23;98143.38;;;14.01;49.39
46412;BME280;32113;42.012;24.870;2023-04-01T02:08:57;98152.22;;;13.94;49.74
46412;BME280;32113;42.012;24.870;2023-04-01T02:11:48;98144.03;;;13.84;50.47
46412;BME280;32113;42.012;24.870;2023-04-01T02:14:31;98136.13;;;13.65;51.12
46412;BME280;32113;42.012;24.870;2023-04-01T02:19:37;98136.72;;;13.49;52.05
46412;BME280;32113;42.012;24.870;2023-04-01T02:22:06;98125.75;;;13.19;53.69
46412;BME280;32113;42.012;24.870;2023-04-01T02:24:35;98120.94;;;13.09;53.79
46412;BME280;32113;42.012;24.870;2023-04-01T02:27:03;98113.59;;;12.98;54.70
46412;BME280;32113;42.012;24.870;2023-04-01T02:29:29;98117.28;;;12.91;54.47
46412;BME280;32113;42.012;24.870;2023-04-01T02:31:55;98117.97;;;12.96;54.79
46412;BME280;32113;42.012;24.870;2023-04-01T02:34:22;98112.53;;;13.04;54.46
46412;BME280;32113;42.012;24.870;2023-04-01T02:36:49;98119.94;;;13.13;54.27
46412;BME280;32113;42.012;24.870;2023-04-01T02:39:15;98108.34;;;13.25;53.89
46412;BME280;32113;42.012;24.870;2023-04-01T02:41:42;98109.06;;;13.29;53.60
46412;BME280;32113;42.012;24.870;2023-04-01T02:44:09;98104.50;;;13.37;53.59
46412;BME280;32113;42.012;24.870;2023-04-01T02:46:34;98109.63;;;13.37;53.36
46412;BME280;32113;42.012;24.870;2023-04-01T02:49:00;98109.53;;;13.40;53.08
46412;BME280;32113;42.012;24.870;2023-04-01T02:51:25;98108.72;;;13.38;53.27
46412;BME280;32113;42.012;24.870;2023-04-01T02:53:51;98109.41;;;13.44;53.35
46412;BME280;32113;42.012;24.870;2023-04-01T02:56:16;98113.53;;;13.49;53.10
46412;BME280;32113;42.012;24.870;2023-04-01T02:58:42;98113.19;;;13.59;51.97
46412;BME280;32113;42.012;24.870;2023-04-01T03:01:07;98110.59;;;13.59;52.32
46412;BME280;32113;42.012;24.870;2023-04-01T03:03:33;98120.16;;;13.57;51.91
46412;BME280;32113;42.012;24.870;2023-04-01T03:06:08;98129.72;;;13.53;51.23
46412;BME280;32113;42.012;24.870;2023-04-01T03:08:34;98123.59;;;13.56;50.41
46412;BME280;32113;42.012;24.870;2023-04-01T03:11:00;98127.97;;;13.53;50.14
46412;BME280;32113;42.012;24.870;2023-04-01T03:13:25;98119.59;;;13.47;50.93
46412;BME280;32113;42.012;24.870;2023-04-01T03:15:51;98103.59;;;13.38;50.48
46412;BME280;32113;42.012;24.870;2023-04-01T03:18:17;98108.91;;;13.34;50.64
46412;BME280;32113;42.012;24.870;2023-04-01T03:20:42;98102.25;;;13.28;50.39
46412;BME280;32113;42.012;24.870;2023-04-01T03:23:08;98098.06;;;13.25;51.28
46412;BME280;32113;42.012;24.870;2023-04-01T03:25:33;98093.56;;;13.31;50.67
46412;BME280;32113;42.012;24.870;2023-04-01T03:27:59;98093.56;;;13.31;50.34
46412;BME280;32113;42.012;24.870;2023-04-01T03:30:25;98085.31;;;13.21;50.50
46412;BME280;32113;42.012;24.870;2023-04-01T03:32:51;98089.59;;;13.22;51.32
46412;BME280;32113;42.012;24.870;2023-04-01T03:35:16;98101.63;;;13.21;51.11
46412;BME280;32113;42.012;24.870;2023-04-01T03:37:42;98094.91;;;13.17;51.54
46412;BME280;32113;42.012;24.870;2023-04-01T03:40:08;98096.75;;;13.13;51.94
46412;BME280;32113;42.012;24.870;2023-04-01T03:42:33;98102.00;;;13.10;51.28
46412;BME280;32113;42.012;24.870;2023-04-01T03:44:59;98100.44;;;13.06;51.48
46412;BME280;32113;42.012;24.870;2023-04-01T03:47:24;98096.28;;;13.02;52.15
46412;BME280;32113;42.012;24.870;2023-04-01T03:49:49;98085.94;;;13.04;51.77
46412;BME280;32113;42.012;24.870;2023-04-01T03:52:15;98093.72;;;13.02;52.19
46412;BME280;32113;42.012;24.870;2023-04-01T03:54:40;98098.69;;;12.83;52.47
46412;BME280;32113;42.012;24.870;2023-04-01T03:57:06;98092.69;;;12.82;52.70
46412;BME280;32113;42.012;24.870;2023-04-01T03:59:31;98082.44;;;12.81;52.53
46412;BME280;32113;42.012;24.870;2023-04-01T04:01:57;98081.63;;;12.80;52.18
46412;BME280;32113;42.012;24.870;2023-04-01T04:04:22;98076.25;;;12.86;52.97
46412;BME280;32113;42.012;24.870;2023-04-01T04:06:47;98081.34;;;12.88;53.11
46412;BME280;32113;42.012;24.870;2023-04-01T04:09:13;98075.31;;;12.89;52.80
46412;BME280;32113;42.012;24.870;2023-04-01T04:11:38;98066.00;;;12.85;52.54
46412;BME280;32113;42.012;24.870;2023-04-01T04:14:04;98063.81;;;12.74;52.32
46412;BME280;32113;42.012;24.870;2023-04-01T04:16:30;98059.88;;;12.64;52.11
46412;BME280;32113;42.012;24.870;2023-04-01T04:18:55;98059.25;;;12.57;52.10
46412;BME280;32113;42.012;24.870;2023-04-01T04:21:21;98067.09;;;12.54;51.75
46412;BME280;32113;42.012;24.870;2023-04-01T04:23:46;98065.28;;;12.56;52.25
46412;BME280;32113;42.012;24.870;2023-04-01T04:26:14;98053.28;;;12.56;51.99
46412;BME280;32113;42.012;24.870;2023-04-01T04:28:39;98051.66;;;12.54;51.96
46412;BME280;32113;42.012;24.870;2023-04-01T04:31:06;98056.66;;;12.57;52.45
46412;BME280;32113;42.012;24.870;2023-04-01T04:33:33;98060.88;;;12.59;52.77
46412;BME280;32113;42.012;24.870;2023-04-01T04:36:01;98060.19;;;12.54;52.62
46412;BME280;32113;42.012;24.870;2023-04-01T04:38:27;98057.56;;;12.56;52.56
46412;BME280;32113;42.012;24.870;2023-04-01T04:40:53;98052.31;;;12.59;52.21
46412;BME280;32113;42.012;24.870;2023-04-01T04:43:18;98055.84;;;12.56;52.37
46412;BME280;32113;42.012;24.870;2023-04-01T04:45:44;98070.84;;;12.69;52.51
46412;BME280;32113;42.012;24.870;2023-04-01T04:48:11;98074.94;;;12.74;52.92
46412;BME280;32113;42.012;24.870;2023-04-01T04:50:41;98071.94;;;12.87;52.39
46412;BME280;32113;42.012;24.870;2023-04-01T04:53:10;98073.44;;;12.93;51.71
46412;BME280;32113;42.012;24.870;2023-04-01T04:55:35;98074.19;;;12.96;51.88
46412;BME280;32113;42.012;24.870;2023-04-01T04:58:01;98076.59;;;13.01;51.72
46412;BME280;32113;42.012;24.870;2023-04-01T05:00:26;98077.41;;;13.03;50.80
46412;BME280;32113;42.012;24.870;2023-04-01T05:02:52;98080.59;;;13.10;51.33
46412;BME280;32113;42.012;24.870;2023-04-01T05:05:17;98071.72;;;13.17;51.16
46412;BME280;32113;42.012;24.870;2023-04-01T05:07:43;98071.63;;;13.20;51.25
46412;BME280;32113;42.012;24.870;2023-04-01T05:10:08;98074.69;;;13.30;51.62
46412;BME280;32113;42.012;24.870;2023-04-01T05:12:34;98071.09;;;13.34;51.54
46412;BME280;32113;42.012;24.870;2023-04-01T05:15:06;98070.09;;;13.38;51.42
46412;BME280;32113;42.012;24.870;2023-04-01T05:17:32;98060.19;;;13.51;50.89
46412;BME280;32113;42.012;24.870;2023-04-01T05:19:58;98053.00;;;13.60;50.89
46412;BME280;32113;42.012;24.870;2023-04-01T05:22:23;98062.00;;;13.72;51.39
46412;BME280;32113;42.012;24.870;2023-04-01T05:24:49;98066.94;;;13.78;50.92
46412;BME280;32113;42.012;24.870;2023-04-01T05:27:14;98058.94;;;13.84;51.04
46412;BME280;32113;42.012;24.870;2023-04-01T05:29:40;98049.09;;;13.94;51.34
46412;BME280;32113;42.012;24.870;2023-04-01T05:32:06;98048.00;;;14.00;51.08
46412;BME280;32113;42.012;24.870;2023-04-01T05:34:31;98060.41;;;14.12;50.35
46412;BME280;32113;42.012;24.870;2023-04-01T05:36:56;98061.81;;;14.19;49.93
46412;BME280;32113;42.012;24.870;2023-04-01T05:39:22;98053.22;;;14.21;50.28
46412;BME280;32113;42.012;24.870;2023-04-01T05:41:48;98047.91;;;14.24;50.08
46412;BME280;32113;42.012;24.870;2023-04-01T05:44:14;98047.06;;;14.23;50.14
46412;BME280;32113;42.012;24.870;2023-04-01T05:46:39;98043.59;;;14.24;50.46
46412;BME280;32113;42.012;24.870;2023-04-01T05:49:05;98046.13;;;14.26;50.10
46412;BME280;32113;42.012;24.870;2023-04-01T05:51:30;98028.88;;;14.26;49.90
46412;BME280;32113;42.012;24.870;2023-04-01T05:53:56;98029.59;;;14.30;50.87
46412;BME280;32113;42.012;24.870;2023-04-01T05:56:21;98025.31;;;14.29;51.36
46412;BME280;32113;42.012;24.870;2023-04-01T05:58:51;98027.16;;;14.27;51.99
46412;BME280;32113;42.012;24.870;2023-04-01T06:01:16;98005.97;;;14.18;51.53
46412;BME280;32113;42.012;24.870;2023-04-01T06:03:43;98010.22;;;14.19;51.39
46412;BME280;32113;42.012;24.870;2023-04-01T06:06:22;98000.88;;;14.17;51.99
46412;BME280;32113;42.012;24.870;2023-04-01T06:08:48;97992.97;;;14.22;51.87
46412;BME280;32113;42.012;24.870;2023-04-01T06:22:27;97988.00;;;14.38;51.91
46412;BME280;32113;42.012;24.870;2023-04-01T06:41:11;97959.91;;;14.51;53.12
46412;BME280;32113;42.012;24.870;2023-04-01T06:46:19;97954.97;;;14.65;52.44
46412;BME280;32113;42.012;24.870;2023-04-01T06:54:45;97935.63;;;14.74;51.34
46412;BME280;32113;42.012;24.870;2023-04-01T06:57:21;97953.78;;;14.73;51.34
46412;BME280;32113;42.012;24.870;2023-04-01T06:59:49;97962.88;;;14.81;51.24
46412;BME280;32113;42.012;24.870;2023-04-01T07:02:25;97979.69;;;14.90;50.78
46412;BME280;32113;42.012;24.870;2023-04-01T07:04:56;97973.50;;;14.94;50.61
46412;BME280;32113;42.012;24.870;2023-04-01T07:07:35;97972.31;;;15.02;50.37
46412;BME280;32113;42.012;24.870;2023-04-01T07:10:17;97967.84;;;15.05;50.65
46412;BME280;32113;42.012;24.870;2023-04-01T07:12:53;97966.22;;;15.03;51.01
46412;BME280;32113;42.012;24.870;2023-04-01T07:15:34;97958.91;;;15.13;51.14
46412;BME280;32113;42.012;24.870;2023-04-01T07:18:16;97954.97;;;15.23;51.10
46412;BME280;32113;42.012;24.870;2023-04-01T07:20:44;97958.66;;;15.36;51.06
46412;BME280;32113;42.012;24.870;2023-04-01T07:23:25;97953.19;;;15.43;50.99
46412;BME280;32113;42.012;24.870;2023-04-01T07:25:55;97950.31;;;15.49;51.33
46412;BME280;32113;42.012;24.870;2023-04-01T07:28:21;97936.03;;;15.59;50.91
46412;BME280;32113;42.012;24.870;2023-04-01T07:31:15;97936.94;;;15.58;51.29
46412;BME280;32113;42.012;24.870;2023-04-01T07:34:05;97925.16;;;15.53;51.84
46412;BME280;32113;42.012;24.870;2023-04-01T07:47:31;97916.78;;;15.65;50.43
46412;BME280;32113;42.012;24.870;2023-04-01T07:55:30;97908.34;;;15.79;49.19
46412;BME280;32113;42.012;24.870;2023-04-01T07:58:06;97914.00;;;15.87;49.65
46412;BME280;32113;42.012;24.870;2023-04-01T08:00:44;97907.81;;;15.90;49.92
46412;BME280;32113;42.012;24.870;2023-04-01T08:05:57;97905.94;;;15.94;49.76
46412;BME280;32113;42.012;24.870;2023-04-01T08:11:08;97895.34;;;15.98;50.25
46412;BME280;32113;42.012;24.870;2023-04-01T08:13:53;97893.13;;;16.08;49.96
46412;BME280;32113;42.012;24.870;2023-04-01T08:21:56;97882.72;;;16.10;49.76
46412;BME280;32113;42.012;24.870;2023-04-01T08:27:03;97877.06;;;16.19;48.94
46412;BME280;32113;42.012;24.870;2023-04-01T08:29:42;97872.34;;;16.10;48.65
46412;BME280;32113;42.012;24.870;2023-04-01T08:32:12;97864.00;;;16.05;49.64
46412;BME280;32113;42.012;24.870;2023-04-01T08:34:44;97870.41;;;15.97;48.54
46412;BME280;32113;42.012;24.870;2023-04-01T08:37:14;97868.34;;;16.04;47.93
46412;BME280;32113;42.012;24.870;2023-04-01T08:39:51;97859.75;;;16.20;47.80
46412;BME280;32113;42.012;24.870;2023-04-01T08:42:35;97859.72;;;16.37;46.81
46412;BME280;32113;42.012;24.870;2023-04-01T08:51:30;97845.13;;;16.52;46.76
46412;BME280;32113;42.012;24.870;2023-04-01T09:05:28;97821.59;;;16.88;45.33
46412;BME280;32113;42.012;24.870;2023-04-01T09:08:17;97806.22;;;17.01;45.25
46412;BME280;32113;42.012;24.870;2023-04-01T09:13:51;97797.13;;;17.10;45.28
46412;BME280;32113;42.012;24.870;2023-04-01T09:27:29;97763.19;;;16.98;45.08
46412;BME280;32113;42.012;24.870;2023-04-01T09:43:26;97733.25;;;16.78;47.71
46412;BME280;32113;42.012;24.870;2023-04-01T09:46:11;97728.75;;;16.96;47.40
46412;BME280;32113;42.012;24.870;2023-04-01T10:16:34;97682.72;;;18.71;45.85
46412;BME280;32113;42.012;24.870;2023-04-01T10:30:07;97655.41;;;18.91;43.80
46412;BME280;32113;42.012;24.870;2023-04-01T10:43:21;97613.22;;;19.14;43.40
46412;BME280;32113;42.012;24.870;2023-04-01T10:46:13;97626.63;;;19.21;42.97
46412;BME280;32113;42.012;24.870;2023-04-01T10:54:54;97579.75;;;18.83;42.84
46412;BME280;32113;42.012;24.870;2023-04-01T11:27:57;97511.38;;;18.57;45.89
46412;BME280;32113;42.012;24.870;2023-04-01T11:33:12;97484.38;;;18.59;47.66
46412;BME280;32113;42.012;24.870;2023-04-01T11:41:32;97477.66;;;18.81;49.52
46412;BME280;32113;42.012;24.870;2023-04-01T12:11:45;97462.47;;;17.97;44.60
46412;BME280;32113;42.012;24.870;2023-04-01T12:17:27;97433.94;;;17.97;45.08
46412;BME280;32113;42.012;24.870;2023-04-01T12:22:48;97428.03;;;17.82;46.81
46412;BME280;32113;42.012;24.870;2023-04-01T12:33:30;97404.59;;;17.96;46.56
46412;BME280;32113;42.012;24.870;2023-04-01T12:41:47;97393.59;;;17.93;48.36
46412;BME280;32113;42.012;24.870;2023-04-01T12:44:40;97379.69;;;18.07;47.79
46412;BME280;32113;42.012;24.870;2023-04-01T12:50:21;97364.25;;;18.56;47.63
46412;BME280;32113;42.012;24.870;2023-04-01T12:55:59;97372.56;;;18.98;47.84
46412;BME280;32113;42.012;24.870;2023-04-01T13:01:42;97375.75;;;19.02;46.41
46412;BME280;32113;42.012;24.870;2023-04-01T13:10:01;97362.00;;;18.88;46.43
46412;BME280;32113;42.012;24.870;2023-04-01T13:12:43;97353.09;;;18.80;46.40
46412;BME280;32113;42.012;24.870;2023-04-01T13:17:53;97345.06;;;18.83;46.73
46412;BME280;32113;42.012;24.870;2023-04-01T13:28:29;97337.94;;;18.73;44.67
46412;BME280;32113;42.012;24.870;2023-04-01T13:31:14;97329.53;;;18.70;45.12
46412;BME280;32113;42.012;24.870;2023-04-01T13:44:38;97382.28;;;18.83;44.79
46412;BME280;32113;42.012;24.870;2023-04-01T13:58:04;97491.38;;;17.37;47.03
46412;BME280;32113;42.012;24.870;2023-04-01T14:00:48;97495.50;;;17.12;47.77
46412;BME280;32113;42.012;24.870;2023-04-01T14:03:49;97502.91;;;16.60;49.07
46412;BME280;32113;42.012;24.870;2023-04-01T14:30:51;97583.34;;;14.81;64.27
46412;BME280;32113;42.012;24.870;2023-04-01T14:33:46;97582.66;;;14.78;66.49
46412;BME280;32113;42.012;24.870;2023-04-01T14:36:43;97582.78;;;14.75;67.68
46412;BME280;32113;42.012;24.870;2023-04-01T14:50:28;97551.88;;;15.57;62.44
46412;BME280;32113;42.012;24.870;2023-04-01T15:03:28;97548.19;;;17.13;55.25
46412;BME280;32113;42.012;24.870;2023-04-01T15:15:58;97551.78;;;17.80;47.76
46412;BME280;32113;42.012;24.870;2023-04-01T15:24:14;97563.00;;;17.80;45.85
46412;BME280;32113;42.012;24.870;2023-04-01T15:31:50;97531.22;;;18.04;46.54
46412;BME280;32113;42.012;24.870;2023-04-01T15:34:44;97529.41;;;18.19;48.50
46412;BME280;32113;42.012;24.870;2023-04-01T15:40:20;97529.66;;;18.02;48.43
46412;BME280;32113;42.012;24.870;2023-04-01T15:42:54;97522.06;;;17.98;48.31
46412;BME280;32113;42.012;24.870;2023-04-01T15:53:26;97533.06;;;18.17;49.12
46412;BME280;32113;42.012;24.870;2023-04-01T16:01:49;97526.00;;;17.91;48.98
46412;BME280;32113;42.012;24.870;2023-04-01T16:15:40;97531.63;;;17.98;48.20
46412;BME280;32113;42.012;24.870;2023-04-01T16:23:53;97562.63;;;18.14;50.46
46412;BME280;32113;42.012;24.870;2023-04-01T16:28:57;97584.44;;;18.11;51.62
46412;BME280;32113;42.012;24.870;2023-04-01T16:31:43;97600.66;;;18.01;52.22
46412;BME280;32113;42.012;24.870;2023-04-01T16:36:54;97617.25;;;17.56;53.32
46412;BME280;32113;42.012;24.870;2023-04-01T16:45:37;97633.66;;;16.98;55.92
46412;BME280;32113;42.012;24.870;2023-04-01T16:48:15;97651.19;;;16.93;55.74
46412;BME280;32113;42.012;24.870;2023-04-01T16:55:46;97647.66;;;17.10;55.96
46412;BME280;32113;42.012;24.870;2023-04-01T16:58:21;97641.03;;;16.90;54.94
46412;BME280;32113;42.012;24.870;2023-04-01T17:00:55;97641.47;;;16.67;50.28
46412;BME280;32113;42.012;24.870;2023-04-01T17:03:29;97622.50;;;16.67;50.68
46412;BME280;32113;42.012;24.870;2023-04-01T17:17:01;97634.69;;;16.65;51.88
46412;BME280;32113;42.012;24.870;2023-04-01T17:33:45;97615.38;;;16.71;51.03
46412;BME280;32113;42.012;24.870;2023-04-01T17:44:25;97625.50;;;15.98;51.04
46412;BME280;32113;42.012;24.870;2023-04-01T17:47:10;97625.44;;;15.99;50.76
46412;BME280;32113;42.012;24.870;2023-04-01T17:52:42;97640.50;;;16.23;50.45
46412;BME280;32113;42.012;24.870;2023-04-01T17:55:34;97643.31;;;16.35;48.42
46412;BME280;32113;42.012;24.870;2023-04-01T17:58:28;97664.63;;;16.54;48.47
46412;BME280;32113;42.012;24.870;2023-04-01T18:01:21;97689.66;;;16.70;49.09
46412;BME280;32113;42.012;24.870;2023-04-01T18:04:10;97689.53;;;16.72;49.15
46412;BME280;32113;42.012;24.870;2023-04-01T18:22:48;97847.13;;;15.27;57.70
46412;BME280;32113;42.012;24.870;2023-04-01T18:25:38;97826.09;;;15.17;57.71
46412;BME280;32113;42.012;24.870;2023-04-01T18:36:21;97822.88;;;15.11;52.15
46412;BME280;32113;42.012;24.870;2023-04-01T18:48:30;97825.06;;;14.84;48.91
46412;BME280;32113;42.012;24.870;2023-04-01T18:51:03;97824.22;;;14.83;48.02
46412;BME280;32113;42.012;24.870;2023-04-01T18:56:29;97841.66;;;14.97;47.14
46412;BME280;32113;42.012;24.870;2023-04-01T18:59:25;97843.25;;;15.00;46.46
46412;BME280;32113;42.012;24.870;2023-04-01T19:13:04;97843.97;;;14.65;52.13
46412;BME280;32113;42.012;24.870;2023-04-01T19:20:39;97837.91;;;14.28;53.62
46412;BME280;32113;42.012;24.870;2023-04-01T19:26:39;97832.88;;;14.05;54.29
46412;BME280;32113;42.012;24.870;2023-04-01T19:36:53;97864.44;;;14.11;53.60
46412;BME280;32113;42.012;24.870;2023-04-01T19:50:57;97880.94;;;14.27;51.16
46412;BME280;32113;42.012;24.870;2023-04-01T19:56:18;97881.22;;;14.40;51.05
46412;BME280;32113;42.012;24.870;2023-04-01T19:59:02;97880.19;;;14.44;50.83
46412;BME280;32113;42.012;24.870;2023-04-01T20:01:40;97887.81;;;14.46;50.98
46412;BME280;32113;42.012;24.870;2023-04-01T20:04:33;97883.22;;;14.53;51.37
46412;BME280;32113;42.012;24.870;2023-04-01T20:07:10;97879.03;;;14.50;51.54
46412;BME280;32113;42.012;24.870;2023-04-01T20:12:34;97890.50;;;14.44;51.89
46412;BME280;32113;42.012;24.870;2023-04-01T20:15:43;97903.94;;;14.32;52.23
46412;BME280;32113;42.012;24.870;2023-04-01T20:18:23;97907.28;;;14.34;52.31
46412;BME280;32113;42.012;24.870;2023-04-01T20:21:06;97914.75;;;14.40;51.87
46412;BME280;32113;42.012;24.870;2023-04-01T20:23:50;97919.66;;;14.47;52.12
46412;BME280;32113;42.012;24.870;2023-04-01T20:26:40;97927.03;;;14.54;51.58
46412;BME280;32113;42.012;24.870;2023-04-01T20:42:49;97951.19;;;14.53;51.74
46412;BME280;32113;42.012;24.870;2023-04-01T20:50:48;97981.69;;;14.43;52.63
46412;BME280;32113;42.012;24.870;2023-04-01T20:53:16;97976.47;;;14.45;52.35
46412;BME280;32113;42.012;24.870;2023-04-01T21:01:13;97988.25;;;14.11;53.35
46412;BME280;32113;42.012;24.870;2023-04-01T21:17:42;98005.97;;;13.31;55.75
46412;BME280;32113;42.012;24.870;2023-04-01T21:30:47;98004.34;;;13.06;54.48
46412;BME280;32113;42.012;24.870;2023-04-01T21:33:24;98014.09;;;12.97;53.88
46412;BME280;32113;42.012;24.870;2023-04-01T21:36:22;98019.00;;;12.80;53.43
46412;BME280;32113;42.012;24.870;2023-04-01T21:41:34;98016.03;;;12.91;53.51
46412;BME280;32113;42.012;24.870;2023-04-01T22:06:50;98046.75;;;12.95;52.39
46412;BME280;32113;42.012;24.870;2023-04-01T22:09:29;98049.28;;;12.97;52.25
46412;BME280;32113;42.012;24.870;2023-04-01T22:15:03;98055.84;;;13.06;52.45
46412;BME280;32113;42.012;24.870;2023-04-01T22:31:52;98060.94;;;13.07;49.85
46412;BME280;32113;42.012;24.870;2023-04-01T22:34:46;98053.28;;;13.06;49.14
46412;BME280;32113;42.012;24.870;2023-04-01T22:37:36;98046.16;;;13.12;49.05
46412;BME280;32113;42.012;24.870;2023-04-01T22:45:28;98048.88;;;13.32;47.05
46412;BME280;32113;42.012;24.870;2023-04-01T22:50:34;98053.34;;;13.50;45.62
46412;BME280;32113;42.012;24.870;2023-04-01T22:56:12;98053.19;;;13.55;45.07
46412;BME280;32113;42.012;24.870;2023-04-01T22:58:50;98043.00;;;13.52;43.79
46412;BME280;32113;42.012;24.870;2023-04-01T23:01:23;98040.41;;;13.52;43.61
46412;BME280;32113;42.012;24.870;2023-04-01T23:03:51;98043.25;;;13.68;43.47
46412;BME280;32113;42.012;24.870;2023-04-01T23:06:22;98050.06;;;13.69;42.99
46412;BME280;32113;42.012;24.870;2023-04-01T23:09:07;98047.50;;;13.69;42.96
46412;BME280;32113;42.012;24.870;2023-04-01T23:11:42;98046.81;;;13.86;43.45
46412;BME280;32113;42.012;24.870;2023-04-01T23:22:36;98024.75;;;14.01;43.85
46412;BME280;32113;42.012;24.870;2023-04-01T23:28:40;98033.19;;;14.05;42.88
46412;BME280;32113;42.012;24.870;2023-04-01T23:34:00;98040.31;;;14.21;42.16
46412;BME280;32113;42.012;24.870;2023-04-01T23:36:28;98046.94;;;14.26;42.44
46412;BME280;32113;42.012;24.870;2023-04-01T23:38:55;98043.38;;;14.29;42.54
46412;BME280;32113;42.012;24.870;2023-04-01T23:41:29;98060.56;;;14.30;42.74
46412;BME280;32113;42.012;24.870;2023-04-01T23:44:15;98069.06;;;14.32;42.45
46412;BME280;32113;42.012;24.870;2023-04-01T23:46:42;98073.31;;;14.33;42.93
46412;BME280;32113;42.012;24.870;2023-04-01T23:49:16;98075.91;;;14.33;43.47
46412;BME280;32113;42.012;24.870;2023-04-01T23:52:40;98088.94;;;14.30;43.67
46412;BME280;32113;42.012;24.870;2023-04-01T23:54:59;98088.16;;;14.28;44.23
46412;BME280;32113;42.012;24.870;2023-04-01T23:57:32;98091.91;;;14.21;44.66
